sensor_id;sensor_type;location;lat;lon;timestamp;P1;durP1;ratioP1;P2;durP2;ratioP2
38851;SDS011;24605;50.092;9.182;2023-06-10T00:00:06;8.82;;;5.80;;
38851;SDS011;24605;50.092;9.182;2023-06-10T00:02:33;8.75;;;5.35;;
38851;SDS011;24605;50.092;9.182;2023-06-10T00:04:59;9.25;;;6.40;;
38851;SDS011;24605;50.092;9.182;2023-06-10T00:07:26;9.82;;;5.88;;
38851;SDS011;24605;50.092;9.182;2023-06-10T00:09:52;8.73;;;6.25;;
38851;SDS011;24605;50.092;9.182;2023-06-10T00:12:20;7.72;;;5.68;;
38851;SDS011;24605;50.092;9.182;2023-06-10T00:14:46;9.55;;;5.80;;
38851;SDS011;24605;50.092;9.182;2023-06-10T00:17:16;9.13;;;5.47;;
38851;SDS011;24605;50.092;9.182;2023-06-10T00:19:42;8.48;;;5.55;;
38851;SDS011;24605;50.092;9.182;2023-06-10T00:22:11;10.52;;;5.82;;
38851;SDS011;24605;50.092;9.182;2023-06-10T00:24:39;7.78;;;5.43;;
38851;SDS011;24605;50.092;9.182;2023-06-10T00:27:07;8.77;;;5.43;;
38851;SDS011;24605;50.092;9.182;2023-06-10T00:29:33;10.32;;;5.75;;
38851;SDS011;24605;50.092;9.182;2023-06-10T00:32:00;8.73;;;5.40;;
38851;SDS011;24605;50.092;9.182;2023-06-10T00:34:27;7.78;;;5.15;;
38851;SDS011;24605;50.092;9.182;2023-06-10T00:36:54;11.10;;;5.30;;
38851;SDS011;24605;50.092;9.182;2023-06-10T00:39:20;8.02;;;5.50;;
38851;SDS011;24605;50.092;9.182;2023-06-10T00:41:47;8.50;;;5.88;;
38851;SDS011;24605;50.092;9.182;2023-06-10T00:44:13;9.77;;;5.50;;
38851;SDS011;24605;50.092;9.182;2023-06-10T00:46:40;9.10;;;5.85;;
38851;SDS011;24605;50.092;9.182;2023-06-10T00:49:06;8.35;;;5.38;;
38851;SDS011;24605;50.092;9.182;2023-06-10T00:51:34;7.97;;;5.57;;
38851;SDS011;24605;50.092;9.182;2023-06-10T00:54:02;9.55;;;5.38;;
38851;SDS011;24605;50.092;9.182;2023-06-10T00:56:29;7.40;;;5.30;;
38851;SDS011;24605;50.092;9.182;2023-06-10T00:58:56;9.10;;;5.40;;
38851;SDS011;24605;50.092;9.182;2023-06-10T01:01:23;7.22;;;5.28;;
38851;SDS011;24605;50.092;9.182;2023-06-10T01:03:50;8.35;;;5.43;;
38851;SDS011;24605;50.092;9.182;2023-06-10T01:06:18;9.30;;;5.18;;
38851;SDS011;24605;50.092;9.182;2023-06-10T01:08:54;8.45;;;5.47;;
38851;SDS011;24605;50.092;9.182;2023-06-10T01:11:25;10.32;;;5.53;;
38851;SDS011;24605;50.092;9.182;2023-06-10T01:14:00;12.70;;;5.43;;
38851;SDS011;24605;50.092;9.182;2023-06-10T01:16:27;9.60;;;5.30;;
38851;SDS011;24605;50.092;9.182;2023-06-10T01:18:54;9.18;;;5.57;;
38851;SDS011;24605;50.092;9.182;2023-06-10T01:21:22;8.25;;;5.03;;
38851;SDS011;24605;50.092;9.182;2023-06-10T01:23:49;7.93;;;5.25;;
38851;SDS011;24605;50.092;9.182;2023-06-10T01:26:16;8.00;;;5.45;;
38851;SDS011;24605;50.092;9.182;2023-06-10T01:28:46;12.40;;;5.88;;
38851;SDS011;24605;50.092;9.182;2023-06-10T01:31:20;9.18;;;5.22;;
38851;SDS011;24605;50.092;9.182;2023-06-10T01:33:59;9.43;;;5.75;;
38851;SDS011;24605;50.092;9.182;2023-06-10T01:36:28;10.32;;;5.47;;
38851;SDS011;24605;50.092;9.182;2023-06-10T01:38:57;8.15;;;5.32;;
38851;SDS011;24605;50.092;9.182;2023-06-10T01:41:26;9.02;;;5.10;;
38851;SDS011;24605;50.092;9.182;2023-06-10T01:43:53;8.60;;;5.75;;
38851;SDS011;24605;50.092;9.182;2023-06-10T01:46:20;8.48;;;5.25;;
38851;SDS011;24605;50.092;9.182;2023-06-10T01:48:47;8.73;;;5.40;;
38851;SDS011;24605;50.092;9.182;2023-06-10T01:51:13;9.13;;;5.03;;
38851;SDS011;24605;50.092;9.182;2023-06-10T01:53:41;8.23;;;5.25;;
38851;SDS011;24605;50.092;9.182;2023-06-10T01:56:08;9.60;;;5.15;;
38851;SDS011;24605;50.092;9.182;2023-06-10T01:58:34;7.53;;;5.32;;
38851;SDS011;24605;50.092;9.182;2023-06-10T02:01:01;9.02;;;5.35;;
38851;SDS011;24605;50.092;9.182;2023-06-10T02:03:28;10.32;;;5.38;;
38851;SDS011;24605;50.092;9.182;2023-06-10T02:05:54;8.52;;;4.95;;
38851;SDS011;24605;50.092;9.182;2023-06-10T02:08:20;7.05;;;5.07;;
38851;SDS011;24605;50.092;9.182;2023-06-10T02:10:48;11.13;;;5.57;;
38851;SDS011;24605;50.092;9.182;2023-06-10T02:13:15;10.50;;;5.38;;
38851;SDS011;24605;50.092;9.182;2023-06-10T02:15:41;8.35;;;5.47;;
38851;SDS011;24605;50.092;9.182;2023-06-10T02:18:08;7.47;;;5.20;;
38851;SDS011;24605;50.092;9.182;2023-06-10T02:20:35;9.43;;;5.63;;
38851;SDS011;24605;50.092;9.182;2023-06-10T02:23:02;8.95;;;5.05;;
38851;SDS011;24605;50.092;9.182;2023-06-10T02:25:28;8.50;;;4.95;;
38851;SDS011;24605;50.092;9.182;2023-06-10T02:27:56;7.95;;;5.30;;
38851;SDS011;24605;50.092;9.182;2023-06-10T02:30:22;9.10;;;5.40;;
38851;SDS011;24605;50.092;9.182;2023-06-10T02:32:49;6.50;;;5.10;;
38851;SDS011;24605;50.092;9.182;2023-06-10T02:35:17;9.45;;;5.22;;
38851;SDS011;24605;50.092;9.182;2023-06-10T02:37:44;8.75;;;5.20;;
38851;SDS011;24605;50.092;9.182;2023-06-10T02:40:11;11.30;;;5.38;;
38851;SDS011;24605;50.092;9.182;2023-06-10T02:42:37;10.05;;;5.45;;
38851;SDS011;24605;50.092;9.182;2023-06-10T02:45:06;7.80;;;5.18;;
38851;SDS011;24605;50.092;9.182;2023-06-10T02:47:33;8.38;;;5.68;;
38851;SDS011;24605;50.092;9.182;2023-06-10T02:50:00;8.88;;;5.72;;
38851;SDS011;24605;50.092;9.182;2023-06-10T02:52:26;7.25;;;5.35;;
38851;SDS011;24605;50.092;9.182;2023-06-10T02:54:53;7.32;;;5.20;;
38851;SDS011;24605;50.092;9.182;2023-06-10T02:57:20;7.78;;;5.45;;
38851;SDS011;24605;50.092;9.182;2023-06-10T02:59:46;10.63;;;5.50;;
38851;SDS011;24605;50.092;9.182;2023-06-10T03:02:14;7.75;;;4.85;;
38851;SDS011;24605;50.092;9.182;2023-06-10T03:04:40;7.50;;;5.32;;
38851;SDS011;24605;50.092;9.182;2023-06-10T03:07:08;8.48;;;5.30;;
38851;SDS011;24605;50.092;9.182;2023-06-10T03:09:36;8.70;;;5.70;;
38851;SDS011;24605;50.092;9.182;2023-06-10T03:12:02;9.60;;;5.65;;
38851;SDS011;24605;50.092;9.182;2023-06-10T03:14:30;7.05;;;5.25;;
38851;SDS011;24605;50.092;9.182;2023-06-10T03:16:56;7.93;;;5.78;;
38851;SDS011;24605;50.092;9.182;2023-06-10T03:19:24;8.32;;;5.28;;
38851;SDS011;24605;50.092;9.182;2023-06-10T03:21:57;8.77;;;5.63;;
38851;SDS011;24605;50.092;9.182;2023-06-10T03:24:32;10.05;;;5.68;;
38851;SDS011;24605;50.092;9.182;2023-06-10T03:27:00;8.57;;;5.85;;
38851;SDS011;24605;50.092;9.182;2023-06-10T03:29:27;9.30;;;5.57;;
38851;SDS011;24605;50.092;9.182;2023-06-10T03:31:53;8.75;;;5.80;;
38851;SDS011;24605;50.092;9.182;2023-06-10T03:34:20;13.90;;;6.03;;
38851;SDS011;24605;50.092;9.182;2023-06-10T03:36:47;7.70;;;5.57;;
38851;SDS011;24605;50.092;9.182;2023-06-10T03:39:14;8.85;;;5.75;;
38851;SDS011;24605;50.092;9.182;2023-06-10T03:41:41;9.68;;;5.78;;
38851;SDS011;24605;50.092;9.182;2023-06-10T03:44:07;9.88;;;5.57;;
38851;SDS011;24605;50.092;9.182;2023-06-10T03:46:36;7.93;;;5.40;;
38851;SDS011;24605;50.092;9.182;2023-06-10T03:49:03;10.18;;;5.60;;
38851;SDS011;24605;50.092;9.182;2023-06-10T03:51:29;8.23;;;5.88;;
38851;SDS011;24605;50.092;9.182;2023-06-10T03:53:57;9.85;;;5.80;;
38851;SDS011;24605;50.092;9.182;2023-06-10T03:56:23;8.55;;;6.10;;
38851;SDS011;24605;50.092;9.182;2023-06-10T03:58:50;9.45;;;5.88;;
38851;SDS011;24605;50.092;9.182;2023-06-10T04:01:17;8.48;;;5.72;;
38851;SDS011;24605;50.092;9.182;2023-06-10T04:03:45;9.00;;;6.20;;
38851;SDS011;24605;50.092;9.182;2023-06-10T04:06:14;7.90;;;5.82;;
38851;SDS011;24605;50.092;9.182;2023-06-10T04:08:41;8.50;;;5.43;;
38851;SDS011;24605;50.092;9.182;2023-06-10T04:11:09;10.48;;;6.35;;
38851;SDS011;24605;50.092;9.182;2023-06-10T04:13:35;9.07;;;5.82;;
38851;SDS011;24605;50.092;9.182;2023-06-10T04:16:02;9.35;;;5.70;;
38851;SDS011;24605;50.092;9.182;2023-06-10T04:18:29;9.00;;;5.85;;
38851;SDS011;24605;50.092;9.182;2023-06-10T04:20:55;9.27;;;5.57;;
38851;SDS011;24605;50.092;9.182;2023-06-10T04:23:22;7.82;;;5.53;;
38851;SDS011;24605;50.092;9.182;2023-06-10T04:25:49;10.45;;;5.63;;
38851;SDS011;24605;50.092;9.182;2023-06-10T04:28:17;9.30;;;5.68;;
38851;SDS011;24605;50.092;9.182;2023-06-10T04:30:43;7.53;;;5.50;;
38851;SDS011;24605;50.092;9.182;2023-06-10T04:33:11;8.77;;;6.03;;
38851;SDS011;24605;50.092;9.182;2023-06-10T04:35:37;10.05;;;5.72;;
38851;SDS011;24605;50.092;9.182;2023-06-10T04:38:03;11.27;;;6.40;;
38851;SDS011;24605;50.092;9.182;2023-06-10T04:40:30;7.95;;;6.05;;
38851;SDS011;24605;50.092;9.182;2023-06-10T04:42:56;11.00;;;6.30;;
38851;SDS011;24605;50.092;9.182;2023-06-10T04:45:24;10.10;;;6.40;;
38851;SDS011;24605;50.092;9.182;2023-06-10T04:47:51;9.60;;;6.03;;
38851;SDS011;24605;50.092;9.182;2023-06-10T04:50:20;9.77;;;5.60;;
38851;SDS011;24605;50.092;9.182;2023-06-10T04:52:47;10.50;;;6.05;;
38851;SDS011;24605;50.092;9.182;2023-06-10T04:55:13;8.88;;;5.68;;
38851;SDS011;24605;50.092;9.182;2023-06-10T04:57:40;8.20;;;5.60;;
38851;SDS011;24605;50.092;9.182;2023-06-10T05:00:06;8.63;;;6.28;;
38851;SDS011;24605;50.092;9.182;2023-06-10T05:02:35;9.68;;;5.78;;
38851;SDS011;24605;50.092;9.182;2023-06-10T05:05:01;10.38;;;6.28;;
38851;SDS011;24605;50.092;9.182;2023-06-10T05:07:28;10.90;;;5.85;;
38851;SDS011;24605;50.092;9.182;2023-06-10T05:09:55;11.82;;;5.63;;
38851;SDS011;24605;50.092;9.182;2023-06-10T05:12:22;8.35;;;5.45;;
38851;SDS011;24605;50.092;9.182;2023-06-10T05:14:49;11.57;;;6.20;;
38851;SDS011;24605;50.092;9.182;2023-06-10T05:17:16;9.05;;;6.18;;
38851;SDS011;24605;50.092;9.182;2023-06-10T05:19:44;11.45;;;5.95;;
38851;SDS011;24605;50.092;9.182;2023-06-10T05:22:10;12.48;;;6.45;;
38851;SDS011;24605;50.092;9.182;2023-06-10T05:24:37;8.13;;;5.70;;
38851;SDS011;24605;50.092;9.182;2023-06-10T05:27:04;10.65;;;5.93;;
38851;SDS011;24605;50.092;9.182;2023-06-10T05:29:31;10.07;;;6.20;;
38851;SDS011;24605;50.092;9.182;2023-06-10T05:31:58;8.43;;;5.93;;
38851;SDS011;24605;50.092;9.182;2023-06-10T05:34:28;8.57;;;5.78;;
38851;SDS011;24605;50.092;9.182;2023-06-10T05:36:55;13.18;;;6.68;;
38851;SDS011;24605;50.092;9.182;2023-06-10T05:39:22;17.50;;;6.15;;
38851;SDS011;24605;50.092;9.182;2023-06-10T05:41:48;10.48;;;6.45;;
38851;SDS011;24605;50.092;9.182;2023-06-10T05:44:15;8.77;;;5.78;;
38851;SDS011;24605;50.092;9.182;2023-06-10T05:46:41;9.13;;;6.18;;
38851;SDS011;24605;50.092;9.182;2023-06-10T05:49:08;9.57;;;6.18;;
38851;SDS011;24605;50.092;9.182;2023-06-10T05:51:34;9.15;;;5.85;;
38851;SDS011;24605;50.092;9.182;2023-06-10T05:54:03;9.93;;;6.05;;
38851;SDS011;24605;50.092;9.182;2023-06-10T05:56:29;10.35;;;5.93;;
38851;SDS011;24605;50.092;9.182;2023-06-10T05:58:56;10.40;;;6.22;;
38851;SDS011;24605;50.092;9.182;2023-06-10T06:01:23;9.27;;;6.15;;
38851;SDS011;24605;50.092;9.182;2023-06-10T06:03:50;8.00;;;5.68;;
38851;SDS011;24605;50.092;9.182;2023-06-10T06:06:16;9.57;;;6.15;;
38851;SDS011;24605;50.092;9.182;2023-06-10T06:08:45;7.93;;;5.90;;
38851;SDS011;24605;50.092;9.182;2023-06-10T06:11:13;7.90;;;6.05;;
38851;SDS011;24605;50.092;9.182;2023-06-10T06:13:39;9.85;;;6.22;;
38851;SDS011;24605;50.092;9.182;2023-06-10T06:16:07;8.10;;;6.03;;
38851;SDS011;24605;50.092;9.182;2023-06-10T06:18:33;10.43;;;6.10;;
38851;SDS011;24605;50.092;9.182;2023-06-10T06:21:00;8.73;;;6.30;;
38851;SDS011;24605;50.092;9.182;2023-06-10T06:23:26;9.70;;;6.13;;
38851;SDS011;24605;50.092;9.182;2023-06-10T06:25:53;8.98;;;5.95;;
38851;SDS011;24605;50.092;9.182;2023-06-10T06:28:21;9.88;;;6.15;;
38851;SDS011;24605;50.092;9.182;2023-06-10T06:30:47;9.32;;;5.85;;
38851;SDS011;24605;50.092;9.182;2023-06-10T06:33:14;8.93;;;6.05;;
38851;SDS011;24605;50.092;9.182;2023-06-10T06:35:40;9.18;;;6.00;;
38851;SDS011;24605;50.092;9.182;2023-06-10T06:38:07;8.48;;;6.03;;
38851;SDS011;24605;50.092;9.182;2023-06-10T06:40:33;9.80;;;6.55;;
38851;SDS011;24605;50.092;9.182;2023-06-10T06:43:00;13.32;;;6.60;;
38851;SDS011;24605;50.092;9.182;2023-06-10T06:45:27;9.57;;;6.18;;
38851;SDS011;24605;50.092;9.182;2023-06-10T06:47:54;9.10;;;6.00;;
38851;SDS011;24605;50.092;9.182;2023-06-10T06:50:20;10.15;;;6.53;;
38851;SDS011;24605;50.092;9.182;2023-06-10T06:52:47;8.85;;;6.53;;
38851;SDS011;24605;50.092;9.182;2023-06-10T06:55:13;10.30;;;6.25;;
38851;SDS011;24605;50.092;9.182;2023-06-10T06:57:40;8.88;;;5.75;;
38851;SDS011;24605;50.092;9.182;2023-06-10T07:00:06;10.23;;;6.22;;
38851;SDS011;24605;50.092;9.182;2023-06-10T07:02:35;12.35;;;6.25;;
38851;SDS011;24605;50.092;9.182;2023-06-10T07:05:02;12.50;;;6.53;;
38851;SDS011;24605;50.092;9.182;2023-06-10T07:07:29;7.63;;;5.63;;
38851;SDS011;24605;50.092;9.182;2023-06-10T07:09:55;8.73;;;6.53;;
38851;SDS011;24605;50.092;9.182;2023-06-10T07:12:21;7.93;;;6.47;;
38851;SDS011;24605;50.092;9.182;2023-06-10T07:14:49;10.70;;;6.60;;
38851;SDS011;24605;50.092;9.182;2023-06-10T07:17:15;7.57;;;5.75;;
38851;SDS011;24605;50.092;9.182;2023-06-10T07:19:44;9.20;;;6.28;;
38851;SDS011;24605;50.092;9.182;2023-06-10T07:22:11;10.60;;;6.13;;
38851;SDS011;24605;50.092;9.182;2023-06-10T07:24:37;9.93;;;6.43;;
38851;SDS011;24605;50.092;9.182;2023-06-10T07:27:04;12.20;;;6.13;;
38851;SDS011;24605;50.092;9.182;2023-06-10T07:29:32;9.18;;;5.90;;
38851;SDS011;24605;50.092;9.182;2023-06-10T07:31:58;9.27;;;6.10;;
38851;SDS011;24605;50.092;9.182;2023-06-10T07:34:24;9.70;;;5.47;;
38851;SDS011;24605;50.092;9.182;2023-06-10T07:36:52;12.02;;;5.90;;
38851;SDS011;24605;50.092;9.182;2023-06-10T07:39:19;10.10;;;6.45;;
38851;SDS011;24605;50.092;9.182;2023-06-10T07:41:45;8.75;;;5.63;;
38851;SDS011;24605;50.092;9.182;2023-06-10T07:44:14;9.43;;;5.55;;
38851;SDS011;24605;50.092;9.182;2023-06-10T07:46:40;7.65;;;5.60;;
38851;SDS011;24605;50.092;9.182;2023-06-10T07:49:07;7.57;;;5.60;;
38851;SDS011;24605;50.092;9.182;2023-06-10T07:51:33;9.07;;;5.88;;
38851;SDS011;24605;50.092;9.182;2023-06-10T07:54:01;9.38;;;5.40;;
38851;SDS011;24605;50.092;9.182;2023-06-10T07:56:28;7.10;;;5.18;;
38851;SDS011;24605;50.092;9.182;2023-06-10T07:58:54;7.35;;;4.88;;
38851;SDS011;24605;50.092;9.182;2023-06-10T08:01:22;8.35;;;5.07;;
38851;SDS011;24605;50.092;9.182;2023-06-10T08:03:49;7.90;;;5.22;;
38851;SDS011;24605;50.092;9.182;2023-06-10T08:06:15;8.20;;;5.57;;
38851;SDS011;24605;50.092;9.182;2023-06-10T08:08:42;7.22;;;4.93;;
38851;SDS011;24605;50.092;9.182;2023-06-10T08:11:10;8.50;;;5.50;;
38851;SDS011;24605;50.092;9.182;2023-06-10T08:13:37;7.78;;;4.80;;
38851;SDS011;24605;50.092;9.182;2023-06-10T08:16:04;11.25;;;5.13;;
38851;SDS011;24605;50.092;9.182;2023-06-10T08:18:31;8.48;;;5.38;;
38851;SDS011;24605;50.092;9.182;2023-06-10T08:20:58;10.10;;;5.05;;
38851;SDS011;24605;50.092;9.182;2023-06-10T08:23:24;7.05;;;4.78;;
38851;SDS011;24605;50.092;9.182;2023-06-10T08:25:50;8.40;;;4.82;;
38851;SDS011;24605;50.092;9.182;2023-06-10T08:28:18;6.50;;;4.57;;
38851;SDS011;24605;50.092;9.182;2023-06-10T08:30:47;7.45;;;4.70;;
38851;SDS011;24605;50.092;9.182;2023-06-10T08:33:14;6.45;;;4.30;;
38851;SDS011;24605;50.092;9.182;2023-06-10T08:35:41;7.43;;;4.30;;
38851;SDS011;24605;50.092;9.182;2023-06-10T08:38:07;6.28;;;4.30;;
38851;SDS011;24605;50.092;9.182;2023-06-10T08:40:34;7.22;;;4.55;;
38851;SDS011;24605;50.092;9.182;2023-06-10T08:43:03;8.32;;;4.82;;
38851;SDS011;24605;50.092;9.182;2023-06-10T08:45:34;6.90;;;4.13;;
38851;SDS011;24605;50.092;9.182;2023-06-10T08:48:02;7.60;;;4.15;;
38851;SDS011;24605;50.092;9.182;2023-06-10T08:50:31;7.70;;;4.32;;
38851;SDS011;24605;50.092;9.182;2023-06-10T08:53:00;10.00;;;4.65;;
38851;SDS011;24605;50.092;9.182;2023-06-10T08:55:29;7.63;;;4.38;;
38851;SDS011;24605;50.092;9.182;2023-06-10T08:57:58;8.82;;;4.35;;
38851;SDS011;24605;50.092;9.182;2023-06-10T09:00:25;6.82;;;4.47;;
38851;SDS011;24605;50.092;9.182;2023-06-10T09:02:54;8.77;;;4.50;;
38851;SDS011;24605;50.092;9.182;2023-06-10T09:05:21;8.07;;;4.53;;
38851;SDS011;24605;50.092;9.182;2023-06-10T09:07:48;7.35;;;4.60;;
38851;SDS011;24605;50.092;9.182;2023-06-10T09:10:15;5.60;;;4.20;;
38851;SDS011;24605;50.092;9.182;2023-06-10T09:12:42;9.63;;;4.25;;
38851;SDS011;24605;50.092;9.182;2023-06-10T09:15:08;7.03;;;3.83;;
38851;SDS011;24605;50.092;9.182;2023-06-10T09:17:37;6.32;;;4.10;;
38851;SDS011;24605;50.092;9.182;2023-06-10T09:20:07;6.38;;;3.97;;
38851;SDS011;24605;50.092;9.182;2023-06-10T09:22:34;8.20;;;4.10;;
38851;SDS011;24605;50.092;9.182;2023-06-10T09:25:05;6.30;;;3.90;;
38851;SDS011;24605;50.092;9.182;2023-06-10T09:27:33;5.53;;;3.72;;
38851;SDS011;24605;50.092;9.182;2023-06-10T09:30:11;6.22;;;4.03;;
38851;SDS011;24605;50.092;9.182;2023-06-10T09:32:51;6.78;;;3.90;;
38851;SDS011;24605;50.092;9.182;2023-06-10T09:35:20;5.93;;;4.00;;
38851;SDS011;24605;50.092;9.182;2023-06-10T09:37:46;7.40;;;4.15;;
38851;SDS011;24605;50.092;9.182;2023-06-10T09:40:17;7.80;;;3.72;;
38851;SDS011;24605;50.092;9.182;2023-06-10T09:42:43;6.15;;;3.42;;
38851;SDS011;24605;50.092;9.182;2023-06-10T09:45:10;8.07;;;3.78;;
38851;SDS011;24605;50.092;9.182;2023-06-10T09:47:36;7.43;;;3.70;;
38851;SDS011;24605;50.092;9.182;2023-06-10T09:50:03;7.15;;;3.88;;
38851;SDS011;24605;50.092;9.182;2023-06-10T09:52:31;9.50;;;3.60;;
38851;SDS011;24605;50.092;9.182;2023-06-10T09:55:01;7.57;;;3.70;;
38851;SDS011;24605;50.092;9.182;2023-06-10T09:57:30;5.93;;;3.55;;
38851;SDS011;24605;50.092;9.182;2023-06-10T09:59:58;4.65;;;3.10;;
38851;SDS011;24605;50.092;9.182;2023-06-10T10:02:25;6.95;;;3.38;;
38851;SDS011;24605;50.092;9.182;2023-06-10T10:04:52;4.82;;;2.80;;
38851;SDS011;24605;50.092;9.182;2023-06-10T10:07:18;6.03;;;3.13;;
38851;SDS011;24605;50.092;9.182;2023-06-10T10:09:47;4.30;;;3.08;;
38851;SDS011;24605;50.092;9.182;2023-06-10T10:12:14;5.28;;;3.10;;
38851;SDS011;24605;50.092;9.182;2023-06-10T10:14:43;4.70;;;3.13;;
38851;SDS011;24605;50.092;9.182;2023-06-10T10:17:13;6.00;;;3.03;;
38851;SDS011;24605;50.092;9.182;2023-06-10T10:19:43;5.82;;;2.95;;
38851;SDS011;24605;50.092;9.182;2023-06-10T10:22:15;5.22;;;2.88;;
38851;SDS011;24605;50.092;9.182;2023-06-10T10:24:49;5.97;;;2.67;;
38851;SDS011;24605;50.092;9.182;2023-06-10T10:27:18;4.70;;;3.13;;
38851;SDS011;24605;50.092;9.182;2023-06-10T10:29:47;6.68;;;3.22;;
38851;SDS011;24605;50.092;9.182;2023-06-10T10:32:17;6.30;;;2.97;;
38851;SDS011;24605;50.092;9.182;2023-06-10T10:34:48;8.35;;;3.45;;
38851;SDS011;24605;50.092;9.182;2023-06-10T10:37:19;6.75;;;3.05;;
38851;SDS011;24605;50.092;9.182;2023-06-10T10:39:46;6.18;;;3.47;;
38851;SDS011;24605;50.092;9.182;2023-06-10T10:42:14;5.38;;;3.00;;
38851;SDS011;24605;50.092;9.182;2023-06-10T10:44:41;5.80;;;3.08;;
38851;SDS011;24605;50.092;9.182;2023-06-10T10:47:08;5.50;;;3.25;;
38851;SDS011;24605;50.092;9.182;2023-06-10T10:49:37;5.53;;;3.10;;
38851;SDS011;24605;50.092;9.182;2023-06-10T10:52:04;6.95;;;3.40;;
38851;SDS011;24605;50.092;9.182;2023-06-10T10:54:32;6.95;;;3.30;;
38851;SDS011;24605;50.092;9.182;2023-06-10T10:57:17;6.57;;;3.42;;
38851;SDS011;24605;50.092;9.182;2023-06-10T10:59:45;5.15;;;3.30;;
38851;SDS011;24605;50.092;9.182;2023-06-10T11:02:35;7.47;;;3.53;;
38851;SDS011;24605;50.092;9.182;2023-06-10T11:05:05;7.30;;;3.75;;
38851;SDS011;24605;50.092;9.182;2023-06-10T11:07:33;5.80;;;3.65;;
38851;SDS011;24605;50.092;9.182;2023-06-10T11:10:02;6.43;;;3.80;;
38851;SDS011;24605;50.092;9.182;2023-06-10T11:15:20;5.70;;;3.40;;
38851;SDS011;24605;50.092;9.182;2023-06-10T11:23:33;7.43;;;3.95;;
38851;SDS011;24605;50.092;9.182;2023-06-10T11:26:11;6.22;;;3.70;;
38851;SDS011;24605;50.092;9.182;2023-06-10T11:28:40;5.57;;;3.33;;
38851;SDS011;24605;50.092;9.182;2023-06-10T11:31:08;5.97;;;3.60;;
38851;SDS011;24605;50.092;9.182;2023-06-10T11:33:44;5.00;;;3.25;;
38851;SDS011;24605;50.092;9.182;2023-06-10T11:36:12;7.05;;;3.83;;
38851;SDS011;24605;50.092;9.182;2023-06-10T11:38:39;5.70;;;3.85;;
38851;SDS011;24605;50.092;9.182;2023-06-10T11:41:06;4.35;;;3.10;;
38851;SDS011;24605;50.092;9.182;2023-06-10T11:43:33;9.65;;;3.92;;
38851;SDS011;24605;50.092;9.182;2023-06-10T11:46:01;5.63;;;3.63;;
38851;SDS011;24605;50.092;9.182;2023-06-10T11:48:27;6.43;;;3.75;;
38851;SDS011;24605;50.092;9.182;2023-06-10T11:50:56;4.60;;;3.10;;
38851;SDS011;24605;50.092;9.182;2023-06-10T11:53:22;5.50;;;3.38;;
38851;SDS011;24605;50.092;9.182;2023-06-10T11:55:49;6.07;;;3.67;;
38851;SDS011;24605;50.092;9.182;2023-06-10T11:58:17;6.53;;;3.92;;
38851;SDS011;24605;50.092;9.182;2023-06-10T12:00:45;6.35;;;3.83;;
38851;SDS011;24605;50.092;9.182;2023-06-10T12:03:14;7.68;;;3.95;;
38851;SDS011;24605;50.092;9.182;2023-06-10T12:05:52;6.28;;;3.75;;
38851;SDS011;24605;50.092;9.182;2023-06-10T12:08:23;6.72;;;3.55;;
38851;SDS011;24605;50.092;9.182;2023-06-10T12:10:49;6.07;;;3.55;;
38851;SDS011;24605;50.092;9.182;2023-06-10T12:13:16;7.70;;;3.35;;
38851;SDS011;24605;50.092;9.182;2023-06-10T12:15:43;5.43;;;3.60;;
38851;SDS011;24605;50.092;9.182;2023-06-10T12:18:16;5.43;;;3.30;;
38851;SDS011;24605;50.092;9.182;2023-06-10T12:23:10;6.93;;;3.60;;
38851;SDS011;24605;50.092;9.182;2023-06-10T12:25:37;8.13;;;3.45;;
38851;SDS011;24605;50.092;9.182;2023-06-10T12:28:09;5.72;;;3.80;;
38851;SDS011;24605;50.092;9.182;2023-06-10T12:30:36;6.53;;;3.88;;
38851;SDS011;24605;50.092;9.182;2023-06-10T12:33:02;7.50;;;4.07;;
38851;SDS011;24605;50.092;9.182;2023-06-10T12:35:30;7.03;;;3.85;;
38851;SDS011;24605;50.092;9.182;2023-06-10T12:37:57;5.72;;;3.42;;
38851;SDS011;24605;50.092;9.182;2023-06-10T12:40:26;6.97;;;3.70;;
38851;SDS011;24605;50.092;9.182;2023-06-10T12:42:53;4.78;;;3.30;;
38851;SDS011;24605;50.092;9.182;2023-06-10T12:45:25;4.40;;;3.08;;
38851;SDS011;24605;50.092;9.182;2023-06-10T12:48:03;6.10;;;3.40;;
38851;SDS011;24605;50.092;9.182;2023-06-10T12:50:32;5.30;;;3.50;;
38851;SDS011;24605;50.092;9.182;2023-06-10T12:52:59;5.97;;;3.45;;
38851;SDS011;24605;50.092;9.182;2023-06-10T12:55:25;5.55;;;3.65;;
38851;SDS011;24605;50.092;9.182;2023-06-10T12:57:53;5.63;;;3.60;;
38851;SDS011;24605;50.092;9.182;2023-06-10T13:00:20;5.55;;;3.42;;
38851;SDS011;24605;50.092;9.182;2023-06-10T13:02:48;7.68;;;3.65;;
38851;SDS011;24605;50.092;9.182;2023-06-10T13:05:15;5.85;;;3.30;;
38851;SDS011;24605;50.092;9.182;2023-06-10T13:07:43;7.13;;;3.25;;
38851;SDS011;24605;50.092;9.182;2023-06-10T13:10:09;4.57;;;3.30;;
38851;SDS011;24605;50.092;9.182;2023-06-10T13:12:36;5.72;;;3.22;;
38851;SDS011;24605;50.092;9.182;2023-06-10T13:15:03;7.18;;;3.20;;
38851;SDS011;24605;50.092;9.182;2023-06-10T13:17:31;6.45;;;3.50;;
38851;SDS011;24605;50.092;9.182;2023-06-10T13:19:59;5.47;;;3.47;;
38851;SDS011;24605;50.092;9.182;2023-06-10T13:22:26;5.53;;;3.00;;
38851;SDS011;24605;50.092;9.182;2023-06-10T13:24:55;4.75;;;3.42;;
38851;SDS011;24605;50.092;9.182;2023-06-10T13:27:21;5.15;;;3.00;;
38851;SDS011;24605;50.092;9.182;2023-06-10T13:29:48;4.72;;;2.80;;
38851;SDS011;24605;50.092;9.182;2023-06-10T13:32:14;6.30;;;3.03;;
38851;SDS011;24605;50.092;9.182;2023-06-10T13:34:40;4.30;;;2.67;;
38851;SDS011;24605;50.092;9.182;2023-06-10T13:37:07;6.70;;;3.20;;
38851;SDS011;24605;50.092;9.182;2023-06-10T13:39:33;5.18;;;3.15;;
38851;SDS011;24605;50.092;9.182;2023-06-10T13:42:01;6.38;;;3.10;;
38851;SDS011;24605;50.092;9.182;2023-06-10T13:44:31;5.80;;;3.05;;
38851;SDS011;24605;50.092;9.182;2023-06-10T13:46:58;6.35;;;3.10;;
38851;SDS011;24605;50.092;9.182;2023-06-10T13:49:25;5.60;;;2.85;;
38851;SDS011;24605;50.092;9.182;2023-06-10T13:51:51;7.60;;;2.92;;
38851;SDS011;24605;50.092;9.182;2023-06-10T13:54:18;5.35;;;2.97;;
38851;SDS011;24605;50.092;9.182;2023-06-10T13:56:44;5.63;;;3.33;;
38851;SDS011;24605;50.092;9.182;2023-06-10T13:59:12;6.25;;;3.03;;
38851;SDS011;24605;50.092;9.182;2023-06-10T14:01:40;5.68;;;3.05;;
38851;SDS011;24605;50.092;9.182;2023-06-10T14:04:07;5.15;;;3.10;;
38851;SDS011;24605;50.092;9.182;2023-06-10T14:06:33;5.10;;;3.00;;
38851;SDS011;24605;50.092;9.182;2023-06-10T14:09:00;5.57;;;3.05;;
38851;SDS011;24605;50.092;9.182;2023-06-10T14:11:26;4.97;;;2.88;;
38851;SDS011;24605;50.092;9.182;2023-06-10T14:13:53;5.93;;;2.90;;
38851;SDS011;24605;50.092;9.182;2023-06-10T14:16:22;5.18;;;3.22;;
38851;SDS011;24605;50.092;9.182;2023-06-10T14:18:49;4.30;;;2.90;;
38851;SDS011;24605;50.092;9.182;2023-06-10T14:21:16;5.38;;;2.85;;
38851;SDS011;24605;50.092;9.182;2023-06-10T14:23:42;4.78;;;2.72;;
38851;SDS011;24605;50.092;9.182;2023-06-10T14:26:09;4.85;;;2.88;;
38851;SDS011;24605;50.092;9.182;2023-06-10T14:28:35;6.25;;;3.03;;
38851;SDS011;24605;50.092;9.182;2023-06-10T14:31:02;4.60;;;2.72;;
38851;SDS011;24605;50.092;9.182;2023-06-10T14:33:30;4.32;;;2.83;;
38851;SDS011;24605;50.092;9.182;2023-06-10T14:35:57;5.13;;;2.88;;
38851;SDS011;24605;50.092;9.182;2023-06-10T14:38:23;4.90;;;2.88;;
38851;SDS011;24605;50.092;9.182;2023-06-10T14:40:50;4.18;;;3.00;;
38851;SDS011;24605;50.092;9.182;2023-06-10T14:43:17;4.40;;;2.63;;
38851;SDS011;24605;50.092;9.182;2023-06-10T14:45:43;4.88;;;2.60;;
38851;SDS011;24605;50.092;9.182;2023-06-10T14:48:11;5.35;;;2.90;;
38851;SDS011;24605;50.092;9.182;2023-06-10T14:50:38;5.90;;;2.67;;
38851;SDS011;24605;50.092;9.182;2023-06-10T14:53:07;4.18;;;2.75;;
38851;SDS011;24605;50.092;9.182;2023-06-10T14:55:33;6.22;;;3.50;;
38851;SDS011;24605;50.092;9.182;2023-06-10T14:57:59;4.53;;;2.78;;